createdAt,value
2023-01-06T00:02:36.621Z,-4.03
2023-01-06T00:05:42.153Z,-4.02
2023-01-06T00:08:48.753Z,-4.03
2023-01-06T00:11:54.183Z,-3.85
2023-01-06T00:14:59.329Z,-4.05
2023-01-06T00:18:04.448Z,-4.14
2023-01-06T00:21:10.099Z,-4.09
2023-01-06T00:24:16.687Z,-4.19
2023-01-06T00:27:21.875Z,-4.25
2023-01-06T00:30:27.121Z,-4.34
2023-01-06T00:33:32.293Z,-4.30
2023-01-06T00:36:37.592Z,-4.29
2023-01-06T00:39:44.670Z,-4.32
2023-01-06T00:42:50.770Z,-4.24
2023-01-06T00:45:55.926Z,-4.18
2023-01-06T00:49:06.345Z,-4.10
2023-01-06T00:52:12.435Z,-4.25
2023-01-06T00:55:19.302Z,-4.27
2023-01-06T00:58:24.705Z,-4.17
2023-01-06T01:01:30.045Z,-4.08
2023-01-06T01:04:36.444Z,-4.05
2023-01-06T01:07:41.808Z,-4.08
2023-01-06T01:10:48.441Z,-4.18
2023-01-06T01:13:53.952Z,-4.14
2023-01-06T01:16:59.362Z,-4.27
2023-01-06T01:20:07.164Z,-4.32
2023-01-06T01:23:14.559Z,-4.26
2023-01-06T01:26:20.967Z,-4.35
2023-01-06T01:29:26.030Z,-4.34
2023-01-06T01:32:31.241Z,-4.26
2023-01-06T01:35:36.418Z,-4.10
2023-01-06T01:38:41.832Z,-4.16
2023-01-06T01:41:48.704Z,-4.40
2023-01-06T01:45:00.003Z,-4.55
2023-01-06T01:48:08.314Z,-4.15
2023-01-06T01:51:17.282Z,-4.15
2023-01-06T01:54:28.793Z,-4.10
2023-01-06T01:57:38.718Z,-3.88
2023-01-06T02:00:45.440Z,-3.97
2023-01-06T02:03:55.418Z,-3.95
2023-01-06T02:07:02.213Z,-3.86
2023-01-06T02:10:13.208Z,-3.94
2023-01-06T02:13:21.605Z,-3.90
2023-01-06T02:16:32.518Z,-3.90
2023-01-06T02:20:08.459Z,-4.01
2023-01-06T02:23:40.884Z,-4.12
2023-01-06T02:27:05.524Z,-4.04
2023-01-06T02:30:41.465Z,-3.91
2023-01-06T02:33:58.365Z,-4.05
2023-01-06T02:37:09.877Z,-4.01
2023-01-06T02:40:27.531Z,-3.97
2023-01-06T02:43:46.689Z,-3.77
2023-01-06T02:47:06.105Z,-3.62
2023-01-06T02:50:24.034Z,-4.09
2023-01-06T02:53:38.171Z,-3.94
2023-01-06T02:56:49.424Z,-3.93
2023-01-06T03:00:06.367Z,-3.88
2023-01-06T03:03:19.358Z,-3.79
2023-01-06T03:06:29.833Z,-3.74
2023-01-06T03:09:40.044Z,-3.80
2023-01-06T03:12:53.121Z,-3.49
2023-01-06T03:16:00.223Z,-3.59
2023-01-06T03:19:08.426Z,-3.85
2023-01-06T03:22:17.306Z,-3.44
2023-01-06T03:25:23.958Z,-3.32
2023-01-06T03:28:30.029Z,-3.61
2023-01-06T03:31:42.175Z,-3.45
2023-01-06T03:35:00.533Z,-3.33
2023-01-06T03:38:16.228Z,-3.20
2023-01-06T03:41:49.207Z,-3.09
2023-01-06T03:44:59.316Z,-3.23
2023-01-06T03:48:11.399Z,-3.29
2023-01-06T03:51:26.949Z,-3.39
2023-01-06T03:54:41.971Z,-3.39
2023-01-06T03:57:51.371Z,-3.31
2023-01-06T04:00:57.786Z,-3.31
2023-01-06T04:04:04.329Z,-3.32
2023-01-06T04:07:13.439Z,-3.16
2023-01-06T04:10:25.796Z,-3.38
2023-01-06T04:13:36.208Z,-3.46
2023-01-06T04:16:45.685Z,-3.59
2023-01-06T04:19:53.728Z,-3.58
2023-01-06T04:23:01.124Z,-3.63
2023-01-06T04:26:16.536Z,-3.52
2023-01-06T04:29:29.192Z,-3.55
2023-01-06T04:32:35.980Z,-3.57
2023-01-06T04:35:46.537Z,-3.51
2023-01-06T04:38:56.000Z,-3.47
2023-01-06T04:42:04.387Z,-3.34
2023-01-06T04:45:12.150Z,-3.25
2023-01-06T04:48:18.347Z,-3.22
2023-01-06T04:51:24.323Z,-3.09
2023-01-06T04:54:30.025Z,-3.12
2023-01-06T04:57:40.180Z,-3.20
2023-01-06T05:00:45.823Z,-3.17
2023-01-06T05:03:52.484Z,-3.00
2023-01-06T05:07:00.748Z,-2.98
2023-01-06T05:10:09.994Z,-2.80
2023-01-06T05:13:18.601Z,-2.69
2023-01-06T05:16:26.755Z,-2.63
2023-01-06T05:19:34.158Z,-2.63
2023-01-06T05:22:40.415Z,-2.86
2023-01-06T05:25:46.423Z,-2.90
2023-01-06T05:28:54.526Z,-2.71
2023-01-06T05:32:00.555Z,-2.80
2023-01-06T05:35:07.680Z,-2.64
2023-01-06T05:38:15.721Z,-2.63
2023-01-06T05:41:22.269Z,-2.55
2023-01-06T05:44:29.459Z,-2.64
2023-01-06T05:47:35.801Z,-2.59
2023-01-06T05:50:42.174Z,-2.51
2023-01-06T05:53:50.319Z,-2.54
2023-01-06T05:56:56.451Z,-2.44
2023-01-06T06:00:05.890Z,-2.76
2023-01-06T06:03:17.790Z,-2.59
2023-01-06T06:06:25.551Z,-2.50
2023-01-06T06:09:33.391Z,-2.91
2023-01-06T06:12:39.217Z,-2.59
2023-01-06T06:15:46.709Z,-2.41
2023-01-06T06:18:55.344Z,-2.62
2023-01-06T06:22:03.017Z,-2.78
2023-01-06T06:25:09.895Z,-2.70
2023-01-06T06:28:15.770Z,-2.59
2023-01-06T06:31:33.526Z,-2.85
2023-01-06T06:34:39.639Z,-2.59
2023-01-06T06:37:46.195Z,-2.53
2023-01-06T06:40:51.888Z,-2.46
2023-01-06T06:43:57.341Z,-2.28
2023-01-06T06:47:05.349Z,-2.29
2023-01-06T06:50:15.455Z,-2.10
2023-01-06T06:53:21.943Z,-2.16
2023-01-06T06:56:30.169Z,-2.05
2023-01-06T06:59:36.404Z,-2.02
2023-01-06T07:02:44.194Z,-1.97
2023-01-06T07:05:51.460Z,-2.21
2023-01-06T07:09:00.288Z,-2.20
2023-01-06T07:12:08.747Z,-2.10
2023-01-06T07:15:16.067Z,-1.90
2023-01-06T07:18:23.455Z,-2.09
2023-01-06T07:21:30.000Z,-2.18
2023-01-06T07:24:36.888Z,-2.03
2023-01-06T07:27:42.515Z,-2.06
2023-01-06T07:30:50.139Z,-2.05
2023-01-06T07:33:57.695Z,-2.06
2023-01-06T07:37:03.603Z,-2.17
2023-01-06T07:40:11.643Z,-2.12
2023-01-06T07:43:17.554Z,-2.01
2023-01-06T07:46:23.943Z,-2.03
2023-01-06T07:49:32.681Z,-1.96
2023-01-06T07:52:38.735Z,-2.01
2023-01-06T07:55:45.378Z,-1.85
2023-01-06T07:58:51.676Z,-1.89
2023-01-06T08:01:57.903Z,-1.80
2023-01-06T08:05:05.861Z,-1.78
2023-01-06T08:08:14.403Z,-1.80
2023-01-06T08:11:21.555Z,-1.69
2023-01-06T08:14:27.051Z,-1.88
2023-01-06T08:17:36.037Z,-1.79
2023-01-06T08:20:43.788Z,-1.89
2023-01-06T08:23:49.705Z,-2.06
2023-01-06T08:26:56.164Z,-2.07
2023-01-06T08:30:06.964Z,-1.88
2023-01-06T08:33:15.572Z,-2.00
2023-01-06T08:36:27.309Z,-1.82
2023-01-06T08:39:33.531Z,-1.98
2023-01-06T08:42:39.480Z,-2.07
2023-01-06T08:45:46.021Z,-2.03
2023-01-06T08:48:51.601Z,-2.09
2023-01-06T08:52:00.551Z,-2.01
2023-01-06T08:55:06.760Z,-2.19
2023-01-06T08:58:23.562Z,-2.25
2023-01-06T09:01:33.214Z,-1.97
2023-01-06T09:04:38.561Z,-2.34
2023-01-06T09:07:47.056Z,-2.25
2023-01-06T09:10:52.715Z,-2.16
2023-01-06T09:13:58.854Z,-2.28
2023-01-06T09:17:04.878Z,-2.25
2023-01-06T09:20:13.786Z,-2.41
2023-01-06T09:23:22.402Z,-2.36
2023-01-06T09:26:28.338Z,-2.35
2023-01-06T09:29:34.600Z,-2.31
2023-01-06T09:32:41.648Z,-2.41
2023-01-06T09:35:48.201Z,-2.22
2023-01-06T09:38:55.961Z,-2.38
2023-01-06T09:42:20.622Z,-2.21
2023-01-06T09:45:34.548Z,-2.21
2023-01-06T09:48:42.913Z,-1.97
2023-01-06T09:51:49.924Z,-1.87
2023-01-06T09:55:01.078Z,-1.91
2023-01-06T09:58:10.966Z,-1.95
2023-01-06T10:01:23.562Z,-2.06
2023-01-06T10:04:31.960Z,-2.18
2023-01-06T10:07:43.820Z,-2.16
2023-01-06T10:11:00.273Z,-2.11
2023-01-06T10:14:14.228Z,-2.15
2023-01-06T10:17:59.187Z,-1.96
2023-01-06T10:21:12.142Z,-2.18
2023-01-06T10:24:36.358Z,-1.87
2023-01-06T10:27:51.107Z,-2.00
2023-01-06T10:30:59.607Z,-2.09
2023-01-06T10:34:06.443Z,-2.34
2023-01-06T10:37:16.715Z,-2.21
2023-01-06T10:40:26.668Z,-2.04
2023-01-06T10:43:34.177Z,-2.28
2023-01-06T10:46:42.126Z,-2.03
2023-01-06T10:49:48.486Z,-1.89
2023-01-06T10:52:55.493Z,-1.98
2023-01-06T10:56:07.868Z,-2.05
2023-01-06T10:59:16.179Z,-2.09
2023-01-06T11:02:27.828Z,-1.98
2023-01-06T11:05:36.437Z,-1.99
2023-01-06T11:08:44.045Z,-1.97
2023-01-06T11:11:51.474Z,-1.85
2023-01-06T11:15:04.209Z,-2.15
2023-01-06T11:18:22.145Z,-1.91
2023-01-06T11:21:41.894Z,-2.16
2023-01-06T11:24:54.107Z,-1.89
2023-01-06T11:28:21.287Z,-2.33
2023-01-06T11:31:31.414Z,-2.17
2023-01-06T11:34:38.950Z,-1.85
2023-01-06T11:37:46.525Z,-1.78
2023-01-06T11:40:57.956Z,-2.33
2023-01-06T11:44:11.189Z,-2.36
2023-01-06T11:47:20.438Z,-2.63
2023-01-06T11:50:28.717Z,-2.34
2023-01-06T11:53:34.916Z,-2.28
2023-01-06T11:56:41.528Z,-2.53
2023-01-06T12:00:18.170Z,-2.57
2023-01-06T12:03:32.458Z,-2.70
2023-01-06T12:06:40.809Z,-2.57
2023-01-06T12:09:49.953Z,-2.63
2023-01-06T12:12:56.086Z,-2.36
2023-01-06T12:16:05.731Z,-2.40
2023-01-06T12:19:19.604Z,-2.54
2023-01-06T12:22:37.690Z,-2.53
2023-01-06T12:25:53.508Z,-2.38
2023-01-06T12:29:03.615Z,-2.31
2023-01-06T12:32:15.974Z,-2.35
2023-01-06T12:35:30.049Z,-2.41
2023-01-06T12:38:44.103Z,-2.43
2023-01-06T12:41:53.815Z,-2.44
2023-01-06T12:45:07.111Z,-2.34
2023-01-06T12:48:19.726Z,-2.38
2023-01-06T12:51:32.605Z,-2.49
2023-01-06T12:54:41.547Z,-2.54
2023-01-06T12:57:54.237Z,-2.52
2023-01-06T13:01:02.861Z,-2.48
2023-01-06T13:04:36.252Z,-2.42
2023-01-06T13:07:50.526Z,-2.67
2023-01-06T13:11:05.358Z,-2.67
2023-01-06T13:14:19.324Z,-2.53
2023-01-06T13:17:30.367Z,-2.63
2023-01-06T13:20:40.727Z,-2.57
2023-01-06T13:24:11.835Z,-2.62
2023-01-06T13:27:29.309Z,-2.52
2023-01-06T13:31:04.149Z,-2.66
2023-01-06T13:34:48.109Z,-2.77
2023-01-06T13:38:16.393Z,-2.74
2023-01-06T13:41:27.484Z,-2.57
2023-01-06T13:44:34.656Z,-2.68
2023-01-06T13:47:41.845Z,-2.68
2023-01-06T13:50:49.026Z,-2.70
2023-01-06T13:57:49.289Z,-2.78
2023-01-06T14:01:10.148Z,-2.60
2023-01-06T14:04:50.383Z,-2.74
2023-01-06T14:07:58.542Z,-2.63
2023-01-06T14:11:08.365Z,-2.69
2023-01-06T14:14:28.638Z,-2.73
2023-01-06T14:17:46.890Z,-2.60
2023-01-06T14:21:05.918Z,-2.64
2023-01-06T14:24:26.109Z,-2.70
2023-01-06T14:28:08.253Z,-2.59
2023-01-06T14:31:41.736Z,-2.67
2023-01-06T14:34:57.893Z,-2.63
2023-01-06T14:38:07.339Z,-2.58
2023-01-06T14:41:24.798Z,-2.72
2023-01-06T14:44:46.101Z,-2.78
2023-01-06T14:47:57.195Z,-2.63
2023-01-06T14:51:19.119Z,-2.63
2023-01-06T14:54:30.621Z,-2.76
2023-01-06T14:57:38.811Z,-2.74
2023-01-06T15:00:48.828Z,-2.58
2023-01-06T15:04:08.549Z,-2.59
2023-01-06T15:07:23.227Z,-2.62
2023-01-06T15:14:09.601Z,-2.55
2023-01-06T15:17:46.290Z,-2.58
2023-01-06T15:21:07.869Z,-2.58
2023-01-06T15:24:22.377Z,-2.56
2023-01-06T15:27:28.352Z,-2.55
2023-01-06T15:30:37.134Z,-2.46
2023-01-06T15:33:45.068Z,-2.43
2023-01-06T15:36:52.161Z,-2.43
2023-01-06T15:43:45.557Z,-2.31
2023-01-06T15:46:52.641Z,-2.47
2023-01-06T15:53:32.720Z,-2.53
2023-01-06T15:56:47.180Z,-2.45
2023-01-06T16:00:11.840Z,-2.34
2023-01-06T16:03:20.956Z,-2.47
2023-01-06T16:06:32.688Z,-2.31
2023-01-06T16:09:55.935Z,-2.32
2023-01-06T16:13:29.143Z,-2.17
2023-01-06T16:16:42.266Z,-2.35
2023-01-06T16:19:52.742Z,-2.29
2023-01-06T16:26:39.006Z,-2.18
2023-01-06T16:34:06.173Z,-2.18
2023-01-06T16:37:16.051Z,-2.10
2023-01-06T16:40:27.819Z,-2.00
2023-01-06T16:43:35.682Z,-2.11
2023-01-06T16:46:45.939Z,-2.08
2023-01-06T16:49:53.896Z,-2.31
2023-01-06T16:53:19.273Z,-2.30
2023-01-06T16:56:27.521Z,-2.18
2023-01-06T16:59:40.839Z,-2.28
2023-01-06T17:03:17.465Z,-2.32
2023-01-06T17:06:27.848Z,-2.32
2023-01-06T17:09:40.836Z,-2.36
2023-01-06T17:13:06.192Z,-2.32
2023-01-06T17:16:21.633Z,-2.41
2023-01-06T17:19:34.799Z,-2.43
2023-01-06T17:22:42.832Z,-2.27
2023-01-06T17:26:09.544Z,-2.20
2023-01-06T17:29:18.810Z,-2.33
2023-01-06T17:32:33.246Z,-2.25
2023-01-06T17:35:51.673Z,-2.05
2023-01-06T17:39:04.452Z,-2.24
2023-01-06T17:42:28.535Z,-2.15
2023-01-06T17:45:47.468Z,-2.34
2023-01-06T17:48:58.360Z,-2.22
2023-01-06T17:52:24.632Z,-2.35
2023-01-06T17:55:46.819Z,-2.47
2023-01-06T17:58:53.814Z,-2.24
2023-01-06T18:02:00.827Z,-2.30
2023-01-06T18:09:22.300Z,-2.31
2023-01-06T18:12:32.037Z,-2.28
2023-01-06T18:15:56.841Z,-2.19
2023-01-06T18:19:36.601Z,-2.34
2023-01-06T18:22:42.664Z,-2.15
2023-01-06T18:25:53.113Z,-2.44
2023-01-06T18:29:01.357Z,-2.30
2023-01-06T18:32:29.149Z,-2.11
2023-01-06T18:35:35.007Z,-2.22
2023-01-06T18:38:42.175Z,-2.22
2023-01-06T18:41:49.588Z,-2.38
2023-01-06T18:45:04.113Z,-2.39
2023-01-06T18:48:16.472Z,-2.43
2023-01-06T18:51:24.175Z,-2.41
2023-01-06T18:54:29.856Z,-2.26
2023-01-06T18:57:37.347Z,-2.21
2023-01-06T19:00:45.866Z,-2.23
2023-01-06T19:03:59.783Z,-2.05
2023-01-06T19:07:11.213Z,-2.33
2023-01-06T19:10:28.090Z,-2.31
2023-01-06T19:13:35.203Z,-2.37
2023-01-06T19:16:51.355Z,-2.18
2023-01-06T19:19:57.979Z,-2.14
2023-01-06T19:23:12.989Z,-2.18
2023-01-06T19:26:25.551Z,-2.42
2023-01-06T19:29:35.315Z,-2.26
2023-01-06T19:32:40.648Z,-2.31
2023-01-06T19:35:46.724Z,-2.37
2023-01-06T19:38:52.183Z,-2.46
2023-01-06T19:42:02.008Z,-2.62
2023-01-06T19:45:21.555Z,-2.58
2023-01-06T19:48:28.310Z,-2.61
2023-01-06T19:51:34.627Z,-2.41
2023-01-06T19:54:40.540Z,-2.42
2023-01-06T19:57:48.565Z,-2.69
2023-01-06T20:00:55.952Z,-2.47
2023-01-06T20:04:01.472Z,-2.48
2023-01-06T20:07:07.448Z,-2.59
2023-01-06T20:10:14.416Z,-2.58
2023-01-06T20:13:20.485Z,-2.45
2023-01-06T20:16:27.418Z,-2.36
2023-01-06T20:19:33.071Z,-2.31
2023-01-06T20:22:38.884Z,-2.29
2023-01-06T20:25:44.691Z,-2.35
2023-01-06T20:28:50.412Z,-2.59
2023-01-06T20:31:57.902Z,-2.37
2023-01-06T20:35:03.462Z,-2.27
2023-01-06T20:38:09.113Z,-2.29
2023-01-06T20:41:17.174Z,-2.26
2023-01-06T20:44:25.062Z,-2.19
2023-01-06T20:47:36.134Z,-2.48
2023-01-06T20:50:44.866Z,-2.54
2023-01-06T20:53:50.403Z,-2.47
2023-01-06T20:56:57.030Z,-2.37
2023-01-06T21:00:03.760Z,-2.23
2023-01-06T21:03:11.587Z,-2.49
2023-01-06T21:06:20.289Z,-2.49
2023-01-06T21:09:29.315Z,-2.49
2023-01-06T21:12:37.633Z,-2.35
2023-01-06T21:15:43.724Z,-2.48
2023-01-06T21:18:52.411Z,-2.54
2023-01-06T21:22:00.723Z,-2.57
2023-01-06T21:25:08.195Z,-2.71
2023-01-06T21:28:14.143Z,-2.50
2023-01-06T21:31:23.082Z,-2.70
2023-01-06T21:34:31.372Z,-2.44
2023-01-06T21:37:38.441Z,-2.46
2023-01-06T21:40:44.190Z,-2.59
2023-01-06T21:43:49.015Z,-2.37
2023-01-06T21:46:54.837Z,-2.36
2023-01-06T21:50:01.636Z,-2.48
2023-01-06T21:53:07.681Z,-2.38
2023-01-06T21:56:14.804Z,-2.35
2023-01-06T21:59:20.462Z,-2.26
2023-01-06T22:02:27.353Z,-2.33
2023-01-06T22:05:34.200Z,-2.27
2023-01-06T22:08:40.136Z,-2.41
2023-01-06T22:11:47.531Z,-2.28
2023-01-06T22:14:54.196Z,-2.28
2023-01-06T22:18:02.018Z,-2.23
2023-01-06T22:21:09.628Z,-2.38
2023-01-06T22:24:17.125Z,-2.35
2023-01-06T22:27:23.164Z,-2.31
2023-01-06T22:30:30.762Z,-2.38
2023-01-06T22:33:37.104Z,-2.28
2023-01-06T22:36:43.896Z,-2.34
2023-01-06T22:39:49.716Z,-2.29
2023-01-06T22:42:55.542Z,-2.30
2023-01-06T22:46:00.989Z,-2.50
2023-01-06T22:49:06.850Z,-2.37
2023-01-06T22:52:16.357Z,-2.45
2023-01-06T22:55:22.360Z,-2.26
2023-01-06T22:58:28.025Z,-2.40
2023-01-06T23:01:33.849Z,-2.44
2023-01-06T23:04:39.523Z,-2.38
2023-01-06T23:07:47.311Z,-2.15
2023-01-06T23:10:53.635Z,-2.29
2023-01-06T23:14:00.572Z,-2.36
2023-01-06T23:17:06.832Z,-2.29
2023-01-06T23:20:14.955Z,-2.19
2023-01-06T23:23:22.046Z,-2.18
2023-01-06T23:26:29.735Z,-2.05
2023-01-06T23:29:35.403Z,-2.28
2023-01-06T23:32:41.323Z,-2.28
2023-01-06T23:35:46.661Z,-2.07
2023-01-06T23:38:53.991Z,-2.06
2023-01-06T23:41:59.285Z,-2.24
2023-01-06T23:45:04.992Z,-2.13
2023-01-06T23:48:11.901Z,-2.29
2023-01-06T23:51:18.624Z,-2.12
2023-01-06T23:54:25.745Z,-2.21
2023-01-06T23:57:31.343Z,-2.18
